createdAt,value
2022-08-09T00:04:10.961Z,0.00
2022-08-09T00:09:16.813Z,0.57
2022-08-09T00:14:30.579Z,0.00
2022-08-09T00:19:39.278Z,0.00
2022-08-09T00:24:41.906Z,0.10
2022-08-09T00:30:24.689Z,0.10
2022-08-09T00:35:06.041Z,0.00
2022-08-09T00:40:12.839Z,0.03
2022-08-09T00:45:20.267Z,0.10
2022-08-09T00:50:26.449Z,0.35
2022-08-09T00:55:54.200Z,0.20
2022-08-09T01:00:54.448Z,0.10
2022-08-09T01:06:17.843Z,0.00
2022-08-09T01:12:00.851Z,0.00
2022-08-09T01:17:24.067Z,0.00
2022-08-09T01:22:31.611Z,0.10
2022-08-09T01:27:35.984Z,0.00
2022-08-09T01:32:46.224Z,0.10
2022-08-09T01:38:10.190Z,0.10
2022-08-09T01:43:13.511Z,0.10
2022-08-09T01:48:19.896Z,0.10
2022-08-09T01:53:39.718Z,0.10
2022-08-09T01:58:48.930Z,0.10
2022-08-09T02:03:53.394Z,0.10
2022-08-09T02:08:59.150Z,0.10
2022-08-09T02:14:07.216Z,0.20
2022-08-09T02:19:10.329Z,0.03
2022-08-09T02:24:26.453Z,0.00
2022-08-09T02:29:32.817Z,0.10
2022-08-09T02:34:40.109Z,0.08
2022-08-09T02:39:49.963Z,0.00
2022-08-09T02:45:04.029Z,0.10
2022-08-09T02:50:13.260Z,0.10
2022-08-09T02:55:21.166Z,0.00
2022-08-09T03:00:25.838Z,0.10
2022-08-09T03:05:29.104Z,0.00
2022-08-09T03:10:32.033Z,0.08
2022-08-09T03:15:40.555Z,0.10
2022-08-09T03:20:58.343Z,0.20
2022-08-09T03:26:04.918Z,0.10
2022-08-09T03:31:10.540Z,0.00
2022-08-09T03:36:27.796Z,0.10
2022-08-09T03:41:44.751Z,0.10
2022-08-09T03:46:49.869Z,0.10
2022-08-09T03:52:00.103Z,0.10
2022-08-09T03:57:18.078Z,0.10
2022-08-09T04:02:26.940Z,0.10
2022-08-09T04:07:47.620Z,0.10
2022-08-09T04:12:53.588Z,0.00
2022-08-09T04:17:57.599Z,0.08
2022-08-09T04:22:59.715Z,0.00
2022-08-09T04:28:02.623Z,0.10
2022-08-09T04:33:05.324Z,0.20
2022-08-09T04:38:09.406Z,0.10
2022-08-09T04:43:10.924Z,0.10
2022-08-09T04:48:15.529Z,0.10
2022-08-09T04:53:17.612Z,0.00
2022-08-09T04:58:19.120Z,0.00
2022-08-09T05:03:39.941Z,0.10
2022-08-09T05:08:43.866Z,0.10
2022-08-09T05:13:49.489Z,0.20
2022-08-09T05:18:58.702Z,0.13
2022-08-09T05:24:02.383Z,0.00
2022-08-09T05:29:05.657Z,0.00
2022-08-09T05:34:07.346Z,0.00
2022-08-09T05:39:29.018Z,0.00
2022-08-09T05:44:32.915Z,0.05
2022-08-09T05:50:25.157Z,0.10
2022-08-09T05:54:57.664Z,0.00
2022-08-09T06:00:07.830Z,0.10
2022-08-09T06:05:13.708Z,0.10
2022-08-09T06:10:15.688Z,0.10
2022-08-09T06:15:19.505Z,0.10
2022-08-09T06:20:21.424Z,0.10
2022-08-09T06:25:24.350Z,0.00
2022-08-09T06:30:25.838Z,0.00
2022-08-09T06:35:56.225Z,0.00
2022-08-09T06:40:54.944Z,0.00
2022-08-09T06:46:06.041Z,0.00
2022-08-09T06:51:12.836Z,0.10
2022-08-09T06:56:16.532Z,0.10
2022-08-09T07:01:21.519Z,0.00
2022-08-09T07:06:28.041Z,0.10
2022-08-09T07:11:34.304Z,0.00
2022-08-09T07:16:57.683Z,0.00
2022-08-09T07:22:00.142Z,0.05
2022-08-09T07:27:03.689Z,0.10
2022-08-09T07:32:12.785Z,0.10
2022-08-09T07:37:16.045Z,0.00
2022-08-09T07:42:17.941Z,0.00
2022-08-09T07:47:20.999Z,0.00
2022-08-09T07:52:43.043Z,0.08
2022-08-09T07:57:47.692Z,0.10
2022-08-09T08:02:50.648Z,0.00
2022-08-09T08:08:44.047Z,0.10
2022-08-09T08:13:16.864Z,0.10
2022-08-09T08:18:21.729Z,0.10
2022-08-09T08:23:27.352Z,0.00
2022-08-09T08:28:32.872Z,0.00
2022-08-09T08:33:40.739Z,0.00
2022-08-09T08:38:56.241Z,0.00
2022-08-09T08:44:02.570Z,0.00
2022-08-09T08:49:08.469Z,0.00
2022-08-09T08:59:46.926Z,0.20
2022-08-09T09:04:53.125Z,0.00
2022-08-09T09:10:01.426Z,0.03
2022-08-09T09:15:06.632Z,0.00
2022-08-09T09:20:15.418Z,0.00
2022-08-09T09:30:57.717Z,0.10
2022-08-09T09:36:11.630Z,0.10
2022-08-09T09:41:26.080Z,0.00
2022-08-09T09:46:51.530Z,0.00
2022-08-09T09:52:01.757Z,0.00
2022-08-09T09:58:04.102Z,0.10
2022-08-09T10:02:46.457Z,0.00
2022-08-09T10:08:10.945Z,0.10
2022-08-09T10:13:10.232Z,0.10
2022-08-09T10:18:12.492Z,0.00
2022-08-09T10:23:21.011Z,0.00
2022-08-09T10:28:23.582Z,0.03
2022-08-09T10:33:29.592Z,0.00
2022-08-09T10:38:56.664Z,0.00
2022-08-09T10:44:02.414Z,0.00
2022-08-09T10:49:50.523Z,0.10
2022-08-09T10:54:53.436Z,0.00
2022-08-09T10:59:57.578Z,0.00
2022-08-09T11:05:30.178Z,0.00
2022-08-09T11:10:47.008Z,0.00
2022-08-09T11:16:35.257Z,0.00
2022-08-09T11:21:57.428Z,0.10
2022-08-09T11:28:04.791Z,0.03
2022-08-09T11:32:58.034Z,0.05
2022-08-09T11:38:14.126Z,0.00
2022-08-09T11:43:25.507Z,0.00
2022-08-09T11:48:31.816Z,0.00
2022-08-09T11:53:58.813Z,0.10
2022-08-09T11:58:59.567Z,0.05
2022-08-09T12:04:13.574Z,0.00
2022-08-09T12:09:27.275Z,0.00
2022-08-09T12:15:04.103Z,0.10
2022-08-09T12:20:00.648Z,0.10
2022-08-09T12:25:37.681Z,0.00
2022-08-09T12:30:40.258Z,0.10
2022-08-09T12:35:43.038Z,0.00
2022-08-09T12:40:51.823Z,0.10
2022-08-09T12:51:03.992Z,0.00
2022-08-09T12:56:15.112Z,0.05
2022-08-09T13:01:31.402Z,0.00
2022-08-09T13:06:39.162Z,0.00
2022-08-09T13:11:46.896Z,0.03
2022-08-09T13:16:53.772Z,0.00
2022-08-09T13:22:35.194Z,0.03
2022-08-09T13:27:54.413Z,0.00
2022-08-09T13:32:57.058Z,0.10
2022-08-09T13:38:00.101Z,0.10
2022-08-09T13:43:05.150Z,0.20
2022-08-09T13:48:10.895Z,0.00
2022-08-09T13:53:12.605Z,0.10
2022-08-09T13:58:14.170Z,0.00
2022-08-09T14:04:01.802Z,0.00
2022-08-09T14:08:37.132Z,0.00
2022-08-09T14:14:24.451Z,0.05
2022-08-09T14:19:00.271Z,0.10
2022-08-09T14:24:18.615Z,0.00
2022-08-09T14:30:18.711Z,0.20
2022-08-09T14:34:45.028Z,0.00
2022-08-09T14:39:48.582Z,0.10
2022-08-09T14:44:59.898Z,0.13
2022-08-09T14:50:02.743Z,0.25
2022-08-09T14:55:06.807Z,0.20
2022-08-09T15:00:10.333Z,0.10
2022-08-09T15:05:12.027Z,0.10
2022-08-09T15:10:16.948Z,0.00
2022-08-09T15:15:18.675Z,0.03
2022-08-09T15:22:00.965Z,0.10
2022-08-09T15:25:42.829Z,0.13
2022-08-09T15:30:48.861Z,0.00
2022-08-09T15:36:05.730Z,0.10
2022-08-09T15:41:09.655Z,0.17
2022-08-09T15:46:33.744Z,0.10
2022-08-09T15:52:02.943Z,0.10
2022-08-09T15:56:54.372Z,0.10
2022-08-09T16:01:56.546Z,0.15
2022-08-09T16:06:58.699Z,0.10
2022-08-09T16:12:04.253Z,0.25
2022-08-09T16:17:05.729Z,0.20
2022-08-09T16:22:07.226Z,0.20
2022-08-09T16:27:17.267Z,0.20
2022-08-09T16:32:34.362Z,0.15
2022-08-09T16:37:54.993Z,0.15
2022-08-09T16:42:59.812Z,0.20
2022-08-09T16:48:39.215Z,0.08
2022-08-09T16:53:32.230Z,0.00
2022-08-09T16:58:36.788Z,0.10
2022-08-09T17:03:38.562Z,0.10
2022-08-09T17:08:58.799Z,0.10
2022-08-09T17:14:04.897Z,0.00
2022-08-09T17:19:06.460Z,0.08
2022-08-09T17:24:27.186Z,0.10
2022-08-09T17:29:40.915Z,0.10
2022-08-09T17:35:04.245Z,0.10
2022-08-09T17:40:06.546Z,0.10
2022-08-09T17:45:27.574Z,0.00
2022-08-09T17:50:40.521Z,0.10
2022-08-09T17:55:55.791Z,0.10
2022-08-09T18:01:00.714Z,0.00
2022-08-09T18:06:02.256Z,0.10
2022-08-09T18:11:04.247Z,0.17
2022-08-09T18:16:08.722Z,0.17
2022-08-09T18:21:23.732Z,0.10
2022-08-09T18:26:26.216Z,0.10
2022-08-09T18:31:51.543Z,0.10
2022-08-09T18:36:50.092Z,0.05
2022-08-09T18:41:53.883Z,0.10
2022-08-09T18:47:05.037Z,0.03
2022-08-09T18:52:11.830Z,0.32
2022-08-09T18:57:15.385Z,0.43
2022-08-09T19:02:18.517Z,0.28
2022-08-09T19:07:20.800Z,0.10
2022-08-09T19:12:24.113Z,0.22
2022-08-09T19:17:31.286Z,0.30
2022-08-09T19:22:33.297Z,0.30
2022-08-09T19:27:35.820Z,0.52
2022-08-09T19:32:38.592Z,0.60
2022-08-09T19:37:54.070Z,0.40
2022-08-09T19:42:56.974Z,0.30
2022-08-09T19:47:58.709Z,0.43
2022-08-09T19:53:02.466Z,0.40
2022-08-09T19:58:07.104Z,0.43
2022-08-09T20:04:12.207Z,0.47
2022-08-09T20:08:40.427Z,0.52
2022-08-09T20:13:53.676Z,0.50
2022-08-09T20:19:42.419Z,0.70
2022-08-09T20:24:29.248Z,0.50
2022-08-09T20:29:37.289Z,0.30
2022-08-09T20:34:39.707Z,0.60
2022-08-09T20:40:16.587Z,0.70
2022-08-09T20:45:57.235Z,0.52
2022-08-09T20:50:47.585Z,0.60
2022-08-09T20:56:02.293Z,0.32
2022-08-09T21:01:33.530Z,0.40
2022-08-09T21:06:27.675Z,0.32
2022-08-09T21:16:54.924Z,0.30
2022-08-09T21:21:57.884Z,0.40
2022-08-09T21:26:59.540Z,0.50
2022-08-09T21:32:01.042Z,0.43
2022-08-09T21:37:18.511Z,0.30
2022-08-09T21:42:28.525Z,0.90
2022-08-09T21:47:30.414Z,0.15
2022-08-09T21:52:32.872Z,0.38
2022-08-09T21:57:39.218Z,0.35
2022-08-09T22:03:00.379Z,0.47
2022-08-09T22:08:02.573Z,0.50
2022-08-09T22:13:07.363Z,0.40
2022-08-09T22:18:13.131Z,0.35
2022-08-09T22:23:14.832Z,0.38
2022-08-09T22:28:29.523Z,0.43
2022-08-09T22:33:42.528Z,0.50
2022-08-09T22:38:50.816Z,0.30
2022-08-09T22:44:00.628Z,0.32
2022-08-09T22:49:10.163Z,0.32
2022-08-09T22:54:12.227Z,0.60
2022-08-09T22:59:57.509Z,0.40
2022-08-09T23:04:38.306Z,0.50
2022-08-09T23:09:40.072Z,0.38
2022-08-09T23:14:42.232Z,0.20
2022-08-09T23:20:07.216Z,0.47
2022-08-09T23:25:06.201Z,0.40
2022-08-09T23:30:08.219Z,0.43
2022-08-09T23:35:09.848Z,0.63
2022-08-09T23:40:11.962Z,0.30
2022-08-09T23:45:36.994Z,0.40
2022-08-09T23:50:35.324Z,0.30
2022-08-09T23:55:37.976Z,0.38
